createdAt,value
2018-03-31T00:01:26.832Z,100320.83
2018-03-31T00:03:55.205Z,100323.44
2018-03-31T00:06:23.340Z,100308.07
2018-03-31T00:08:52.340Z,100314.84
2018-03-31T00:11:20.247Z,100311.86
2018-03-31T00:13:48.095Z,100310.02
2018-03-31T00:16:17.305Z,100308.80
2018-03-31T00:18:45.162Z,100301.20
2018-03-31T00:21:13.002Z,100297.18
2018-03-31T00:23:40.844Z,100297.08
2018-03-31T00:26:08.731Z,100306.03
2018-03-31T00:28:36.587Z,100293.55
2018-03-31T00:31:04.404Z,100293.52
2018-03-31T00:33:32.237Z,100292.75
2018-03-31T00:36:00.081Z,100284.84
2018-03-31T00:38:27.965Z,100280.04
2018-03-31T00:40:56.034Z,100276.81
2018-03-31T00:43:24.622Z,100273.56
2018-03-31T00:45:52.802Z,100278.64
2018-03-31T00:48:20.785Z,100289.36
2018-03-31T00:50:50.321Z,100278.05
2018-03-31T00:53:18.244Z,100273.12
2018-03-31T00:55:46.068Z,100265.49
2018-03-31T00:58:13.914Z,100272.38
2018-03-31T01:00:41.940Z,100267.94
2018-03-31T01:03:09.752Z,100260.52
2018-03-31T01:05:37.718Z,100264.25
2018-03-31T01:08:06.486Z,100254.93
2018-03-31T01:10:34.329Z,100250.20
2018-03-31T01:13:02.191Z,100240.74
2018-03-31T01:15:30.083Z,100237.60
2018-03-31T01:17:57.924Z,100236.55
2018-03-31T01:20:25.815Z,100234.52
2018-03-31T01:22:54.785Z,100225.91
2018-03-31T01:25:22.680Z,100221.03
2018-03-31T01:27:50.601Z,100218.30
2018-03-31T01:30:18.786Z,100223.98
2018-03-31T01:32:46.653Z,100204.36
2018-03-31T01:35:14.521Z,100205.53
2018-03-31T01:37:42.386Z,100214.24
2018-03-31T01:40:10.220Z,100214.03
2018-03-31T01:42:38.035Z,100203.50
2018-03-31T01:45:05.837Z,100203.36
2018-03-31T01:47:33.680Z,100199.55
2018-03-31T01:50:01.547Z,100189.34
2018-03-31T01:52:29.417Z,100181.66
2018-03-31T01:54:57.320Z,100187.56
2018-03-31T01:57:25.293Z,100188.88
2018-03-31T01:59:53.231Z,100199.20
2018-03-31T02:02:21.076Z,100196.67
2018-03-31T02:04:48.938Z,100187.06
2018-03-31T02:07:17.225Z,100175.86
2018-03-31T02:09:45.149Z,100181.23
2018-03-31T02:12:13.003Z,100184.79
2018-03-31T02:14:40.848Z,100191.30
2018-03-31T02:17:09.038Z,100185.57
2018-03-31T02:19:36.874Z,100190.66
2018-03-31T02:22:05.522Z,100196.63
2018-03-31T02:24:33.348Z,100204.81
2018-03-31T02:27:01.160Z,100182.48
2018-03-31T02:29:29.213Z,100183.72
2018-03-31T02:31:57.099Z,100182.87
2018-03-31T02:34:24.927Z,100180.45
2018-03-31T02:36:52.831Z,100167.33
2018-03-31T02:39:20.687Z,100161.10
2018-03-31T02:41:48.501Z,100177.22
2018-03-31T02:44:16.503Z,100182.52
2018-03-31T02:46:44.316Z,100188.24
2018-03-31T02:49:12.205Z,100181.45
2018-03-31T02:51:40.065Z,100186.81
2018-03-31T02:54:11.309Z,100185.36
2018-03-31T02:56:39.961Z,100192.94
2018-03-31T02:59:07.972Z,100179.77
2018-03-31T03:01:35.765Z,100179.03
2018-03-31T03:04:03.661Z,100187.00
2018-03-31T03:06:31.482Z,100172.45
2018-03-31T03:08:59.451Z,100178.53
2018-03-31T03:11:27.486Z,100173.05
2018-03-31T03:13:55.368Z,100172.23
2018-03-31T03:16:23.253Z,100164.34
2018-03-31T03:18:51.104Z,100168.08
2018-03-31T03:21:18.995Z,100163.77
2018-03-31T03:23:46.785Z,100165.08
2018-03-31T03:26:14.622Z,100164.80
2018-03-31T03:28:42.969Z,100160.47
2018-03-31T03:31:10.769Z,100164.05
2018-03-31T03:33:38.853Z,100162.87
2018-03-31T03:36:07.311Z,100161.10
2018-03-31T03:38:35.100Z,100166.80
2018-03-31T03:41:03.014Z,100164.44
2018-03-31T03:43:30.907Z,100160.06
2018-03-31T03:45:58.914Z,100164.97
2018-03-31T03:48:26.785Z,100171.91
2018-03-31T03:50:54.627Z,100170.91
2018-03-31T03:53:22.565Z,100170.02
2018-03-31T03:55:50.376Z,100169.09
2018-03-31T03:58:18.241Z,100156.32
2018-03-31T04:00:46.051Z,100159.46
2018-03-31T04:03:13.862Z,100154.87
2018-03-31T04:05:42.446Z,100157.50
2018-03-31T04:08:10.272Z,100157.11
2018-03-31T04:10:38.334Z,100167.56
2018-03-31T04:13:06.532Z,100167.07
2018-03-31T04:15:34.348Z,100164.38
2018-03-31T04:18:02.158Z,100161.02
2018-03-31T04:20:30.669Z,100156.23
2018-03-31T04:22:58.570Z,100158.00
2018-03-31T04:25:26.363Z,100159.81
2018-03-31T04:27:54.831Z,100164.02
2018-03-31T04:30:22.803Z,100166.33
2018-03-31T04:32:50.597Z,100165.33
2018-03-31T04:35:18.663Z,100156.55
2018-03-31T04:37:46.464Z,100169.42
2018-03-31T04:40:14.249Z,100164.16
2018-03-31T04:42:42.196Z,100156.72
2018-03-31T04:45:10.004Z,100165.01
2018-03-31T04:47:37.832Z,100155.05
2018-03-31T04:50:05.991Z,100154.83
2018-03-31T04:52:33.810Z,100151.39
2018-03-31T04:55:01.631Z,100144.41
2018-03-31T04:57:29.607Z,100146.97
2018-03-31T04:59:57.456Z,100150.92
2018-03-31T05:02:25.704Z,100157.37
2018-03-31T05:04:53.726Z,100151.73
2018-03-31T05:07:21.559Z,100149.80
2018-03-31T05:09:49.343Z,100150.36
2018-03-31T05:12:17.313Z,100153.52
2018-03-31T05:14:45.202Z,100152.92
2018-03-31T05:17:13.004Z,100155.52
2018-03-31T05:19:41.345Z,100157.72
2018-03-31T05:22:09.149Z,100146.97
2018-03-31T05:24:37.019Z,100155.41
2018-03-31T05:27:05.026Z,100160.81
2018-03-31T05:29:32.950Z,100163.55
2018-03-31T05:32:00.798Z,100163.47
2018-03-31T05:34:29.636Z,100172.36
2018-03-31T05:36:57.614Z,100182.76
2018-03-31T05:39:25.549Z,100177.53
2018-03-31T05:41:53.512Z,100176.10
2018-03-31T05:44:21.481Z,100177.27
2018-03-31T05:46:49.275Z,100173.18
2018-03-31T05:49:17.194Z,100171.23
2018-03-31T05:51:45.006Z,100178.41
2018-03-31T05:54:12.839Z,100171.05
2018-03-31T05:56:41.533Z,100172.99
2018-03-31T05:59:09.373Z,100171.49
2018-03-31T06:01:37.201Z,100170.56
2018-03-31T06:04:05.134Z,100179.89
2018-03-31T06:06:32.924Z,100177.65
2018-03-31T06:09:00.920Z,100180.15
2018-03-31T06:11:28.934Z,100182.14
2018-03-31T06:13:56.836Z,100178.11
2018-03-31T06:16:24.654Z,100186.69
2018-03-31T06:18:52.886Z,100191.42
2018-03-31T06:21:20.810Z,100182.10
2018-03-31T06:23:48.677Z,100190.45
2018-03-31T06:26:16.504Z,100182.64
2018-03-31T06:28:44.408Z,100184.18
2018-03-31T06:31:12.320Z,100179.27
2018-03-31T06:33:40.352Z,100181.05
2018-03-31T06:36:08.161Z,100177.22
2018-03-31T06:38:36.017Z,100185.33
2018-03-31T06:41:04.018Z,100180.50
2018-03-31T06:43:31.854Z,100179.34
2018-03-31T06:45:59.743Z,100180.03
2018-03-31T06:48:27.650Z,100181.39
2018-03-31T06:50:55.502Z,100178.18
2018-03-31T06:53:23.375Z,100172.86
2018-03-31T06:55:51.382Z,100182.16
2018-03-31T06:58:19.253Z,100175.58
2018-03-31T07:00:47.095Z,100179.80
2018-03-31T07:03:16.803Z,100179.15
2018-03-31T07:05:44.618Z,100162.80
2018-03-31T07:08:12.487Z,100164.19
2018-03-31T07:10:40.522Z,100169.31
2018-03-31T07:13:08.330Z,100157.60
2018-03-31T07:15:36.149Z,100152.56
2018-03-31T07:18:04.534Z,100159.39
2018-03-31T07:20:32.383Z,100161.36
2018-03-31T07:23:00.435Z,100155.27
2018-03-31T07:25:28.308Z,100159.77
2018-03-31T07:30:30.645Z,100157.45
2018-03-31T07:32:58.722Z,100157.86
2018-03-31T07:35:26.586Z,100161.62
2018-03-31T07:37:54.916Z,100151.61
2018-03-31T07:40:23.022Z,100159.77
2018-03-31T07:42:50.874Z,100152.56
2018-03-31T07:45:18.878Z,100156.89
2018-03-31T07:47:46.725Z,100167.98
2018-03-31T07:50:14.631Z,100150.04
2018-03-31T07:52:44.058Z,100157.12
2018-03-31T07:55:11.907Z,100153.84
2018-03-31T07:57:39.754Z,100162.13
2018-03-31T08:00:07.690Z,100160.45
2018-03-31T08:02:35.644Z,100163.39
2018-03-31T08:05:03.582Z,100168.02
2018-03-31T08:07:32.396Z,100154.14
2018-03-31T08:10:00.309Z,100157.21
2018-03-31T08:12:28.767Z,100151.78
2018-03-31T08:14:56.848Z,100158.48
2018-03-31T08:17:24.761Z,100159.34
2018-03-31T08:19:53.445Z,100155.39
2018-03-31T08:22:21.407Z,100158.95
2018-03-31T08:24:49.262Z,100162.61
2018-03-31T08:27:17.117Z,100163.30
2018-03-31T08:29:45.023Z,100165.84
2018-03-31T08:32:12.851Z,100161.51
2018-03-31T08:34:40.654Z,100169.86
2018-03-31T08:37:09.094Z,100170.52
2018-03-31T08:39:36.895Z,100167.61
2018-03-31T08:42:04.782Z,100175.47
2018-03-31T08:44:33.441Z,100167.30
2018-03-31T08:47:01.652Z,100170.78
2018-03-31T08:49:29.681Z,100178.16
2018-03-31T08:51:58.501Z,100180.88
2018-03-31T08:54:26.494Z,100176.04
2018-03-31T08:56:54.487Z,100170.76
2018-03-31T08:59:22.762Z,100174.45
2018-03-31T09:01:50.690Z,100176.63
2018-03-31T09:04:18.603Z,100187.30
2018-03-31T09:06:46.580Z,100182.91
2018-03-31T09:09:14.463Z,100177.42
2018-03-31T09:11:42.296Z,100181.64
2018-03-31T09:14:10.141Z,100188.41
2018-03-31T09:16:37.964Z,100180.56
2018-03-31T09:19:05.882Z,100186.72
2018-03-31T09:21:33.777Z,100185.25
2018-03-31T09:24:01.789Z,100189.24
2018-03-31T09:26:29.670Z,100182.38
2018-03-31T09:28:57.563Z,100188.95
2018-03-31T09:31:25.445Z,100190.98
2018-03-31T09:33:53.354Z,100190.97
2018-03-31T09:36:21.305Z,100192.22
2018-03-31T09:38:49.118Z,100192.22
2018-03-31T09:41:16.982Z,100189.13
2018-03-31T09:43:44.940Z,100197.39
2018-03-31T09:46:12.751Z,100198.67
2018-03-31T09:48:40.664Z,100204.80
2018-03-31T09:51:08.551Z,100203.95
2018-03-31T09:53:36.397Z,100199.22
2018-03-31T09:56:04.351Z,100194.58
2018-03-31T09:58:32.654Z,100200.75
2018-03-31T10:01:03.231Z,100204.60
2018-03-31T10:03:31.165Z,100200.42
2018-03-31T10:05:59.249Z,100197.27
2018-03-31T10:08:27.323Z,100206.78
2018-03-31T10:10:55.500Z,100191.74
2018-03-31T10:13:23.682Z,100188.59
2018-03-31T10:15:52.155Z,100189.11
2018-03-31T10:18:19.971Z,100196.34
2018-03-31T10:20:48.253Z,100187.98
2018-03-31T10:23:16.135Z,100194.81
2018-03-31T10:25:44.013Z,100201.16
2018-03-31T10:28:12.864Z,100206.14
2018-03-31T10:30:40.796Z,100204.61
2018-03-31T10:33:08.967Z,100203.03
2018-03-31T10:35:37.123Z,100205.33
2018-03-31T10:38:06.483Z,100193.79
2018-03-31T10:40:34.434Z,100201.45
2018-03-31T10:43:02.488Z,100211.10
2018-03-31T10:45:30.453Z,100198.30
2018-03-31T10:47:58.372Z,100193.20
2018-03-31T10:50:26.337Z,100197.70
2018-03-31T10:52:54.363Z,100193.88
2018-03-31T10:55:22.272Z,100187.18
2018-03-31T10:57:50.131Z,100201.95
2018-03-31T11:00:18.116Z,100198.88
2018-03-31T11:02:45.933Z,100201.11
2018-03-31T11:05:14.002Z,100195.67
2018-03-31T11:07:41.854Z,100197.61
2018-03-31T11:10:09.757Z,100198.72
2018-03-31T11:12:38.552Z,100204.43
2018-03-31T11:15:06.788Z,100194.56
2018-03-31T11:17:34.667Z,100186.51
2018-03-31T11:20:02.889Z,100196.52
2018-03-31T11:22:33.478Z,100188.12
2018-03-31T11:25:01.559Z,100184.68
2018-03-31T11:27:29.680Z,100184.25
2018-03-31T11:29:57.846Z,100183.99
2018-03-31T11:32:26.244Z,100183.51
2018-03-31T11:34:55.401Z,100179.39
2018-03-31T11:37:24.975Z,100182.03
2018-03-31T11:39:53.148Z,100180.38
2018-03-31T11:42:23.385Z,100176.84
2018-03-31T11:44:51.737Z,100174.28
2018-03-31T11:47:19.808Z,100167.08
2018-03-31T11:49:48.173Z,100160.47
2018-03-31T11:52:16.022Z,100163.80
2018-03-31T11:54:43.967Z,100150.05
2018-03-31T11:57:12.438Z,100158.20
2018-03-31T11:59:40.490Z,100150.98
2018-03-31T12:02:08.487Z,100158.23
2018-03-31T12:04:37.260Z,100155.53
2018-03-31T12:07:06.370Z,100146.08
2018-03-31T12:09:34.235Z,100153.95
2018-03-31T12:12:03.072Z,100149.00
2018-03-31T12:14:31.288Z,100147.98
2018-03-31T12:16:59.431Z,100152.37
2018-03-31T12:19:27.396Z,100143.53
2018-03-31T12:21:55.308Z,100143.73
2018-03-31T12:24:23.509Z,100151.03
2018-03-31T12:26:51.778Z,100146.08
2018-03-31T12:29:19.703Z,100148.86
2018-03-31T12:31:47.755Z,100148.95
2018-03-31T12:34:15.729Z,100147.30
2018-03-31T12:36:43.559Z,100144.25
2018-03-31T12:39:11.565Z,100144.58
2018-03-31T12:41:39.797Z,100142.67
2018-03-31T12:44:07.904Z,100141.91
2018-03-31T12:46:35.774Z,100142.69
2018-03-31T12:49:03.895Z,100144.30
2018-03-31T12:51:31.828Z,100141.49
2018-03-31T12:53:59.722Z,100137.83
2018-03-31T12:56:27.892Z,100149.72
2018-03-31T12:58:55.819Z,100143.28
2018-03-31T13:01:23.789Z,100138.67
2018-03-31T13:03:51.656Z,100135.86
2018-03-31T13:06:19.768Z,100148.71
2018-03-31T13:08:47.673Z,100140.84
2018-03-31T13:11:15.629Z,100141.00
2018-03-31T13:13:43.466Z,100139.72
2018-03-31T13:16:11.280Z,100142.75
2018-03-31T13:18:39.209Z,100142.17
2018-03-31T13:21:07.009Z,100146.37
2018-03-31T13:23:34.826Z,100139.41
2018-03-31T13:26:03.108Z,100147.32
2018-03-31T13:28:31.077Z,100146.61
2018-03-31T13:30:59.630Z,100145.56
2018-03-31T13:33:28.044Z,100142.95
2018-03-31T13:35:55.874Z,100147.59
2018-03-31T13:38:23.995Z,100145.53
2018-03-31T13:40:51.944Z,100145.67
2018-03-31T13:43:19.762Z,100142.95
2018-03-31T13:45:47.695Z,100147.08
2018-03-31T13:48:15.678Z,100153.35
2018-03-31T13:50:43.599Z,100151.18
2018-03-31T13:53:24.758Z,100148.46
2018-03-31T13:55:52.735Z,100155.34
2018-03-31T13:58:20.572Z,100147.44
2018-03-31T14:00:49.878Z,100145.52
2018-03-31T14:03:17.706Z,100144.75
2018-03-31T14:05:45.537Z,100154.28
2018-03-31T14:08:14.402Z,100152.66
2018-03-31T14:10:42.305Z,100152.22
2018-03-31T14:13:10.134Z,100148.11
2018-03-31T14:15:38.665Z,100151.63
2018-03-31T14:18:06.478Z,100155.09
2018-03-31T14:20:34.280Z,100152.02
2018-03-31T14:23:03.425Z,100139.88
2018-03-31T14:25:31.280Z,100149.74
2018-03-31T14:27:59.150Z,100147.30
2018-03-31T14:30:27.929Z,100144.63
2018-03-31T14:32:55.753Z,100148.39
2018-03-31T14:35:23.617Z,100148.46
2018-03-31T14:37:52.327Z,100148.38
2018-03-31T14:40:20.142Z,100154.45
2018-03-31T14:42:48.028Z,100142.45
2018-03-31T14:45:15.869Z,100152.68
2018-03-31T14:47:43.694Z,100158.91
2018-03-31T14:50:11.500Z,100157.25
2018-03-31T14:52:39.351Z,100170.45
2018-03-31T14:55:07.213Z,100159.62
2018-03-31T14:57:35.104Z,100165.75
2018-03-31T15:00:03.749Z,100169.69
2018-03-31T15:02:31.607Z,100167.35
2018-03-31T15:04:59.540Z,100170.70
2018-03-31T15:07:27.451Z,100169.45
2018-03-31T15:09:55.432Z,100169.83
2018-03-31T15:12:23.842Z,100171.85
2018-03-31T15:14:51.767Z,100169.50
2018-03-31T15:17:20.555Z,100167.08
2018-03-31T15:19:49.450Z,100169.95
2018-03-31T15:22:17.361Z,100162.14
2018-03-31T15:24:45.599Z,100164.69
2018-03-31T15:27:13.418Z,100158.61
2018-03-31T15:29:41.730Z,100163.13
2018-03-31T15:32:09.665Z,100159.77
2018-03-31T15:34:37.510Z,100159.09
2018-03-31T15:37:05.632Z,100166.98
2018-03-31T15:39:35.531Z,100172.27
2018-03-31T15:42:03.383Z,100160.45
2018-03-31T15:44:32.941Z,100156.34
2018-03-31T15:47:00.822Z,100160.99
2018-03-31T15:49:38.798Z,100158.64
2018-03-31T15:52:06.622Z,100166.20
2018-03-31T15:54:34.484Z,100168.33
2018-03-31T15:57:02.436Z,100168.80
2018-03-31T15:59:32.785Z,100161.28
2018-03-31T16:02:03.870Z,100168.78
2018-03-31T16:04:31.733Z,100164.33
2018-03-31T16:06:59.639Z,100165.84
2018-03-31T16:09:27.737Z,100163.99
2018-03-31T16:11:55.800Z,100164.76
2018-03-31T16:14:24.025Z,100170.30
2018-03-31T16:16:52.762Z,100174.16
2018-03-31T16:19:20.679Z,100161.12
2018-03-31T16:21:48.690Z,100166.55
2018-03-31T16:24:16.759Z,100167.21
2018-03-31T16:26:45.296Z,100161.02
2018-03-31T16:29:13.266Z,100162.55
2018-03-31T16:31:41.290Z,100167.63
2018-03-31T16:34:09.302Z,100167.52
2018-03-31T16:36:37.893Z,100173.76
2018-03-31T16:39:05.887Z,100174.11
2018-03-31T16:41:33.959Z,100171.59
2018-03-31T16:44:02.648Z,100177.22
2018-03-31T16:46:30.681Z,100181.12
2018-03-31T16:48:58.836Z,100181.51
2018-03-31T16:51:26.984Z,100176.44
2018-03-31T16:53:55.002Z,100183.86
2018-03-31T16:56:23.070Z,100180.47
2018-03-31T16:58:50.913Z,100180.34
2018-03-31T17:01:18.871Z,100180.67
2018-03-31T17:03:46.921Z,100180.04
2018-03-31T17:06:14.737Z,100184.17
2018-03-31T17:08:43.365Z,100183.89
2018-03-31T17:11:11.193Z,100183.61
2018-03-31T17:13:39.008Z,100188.23
2018-03-31T17:16:07.710Z,100189.73
2018-03-31T17:18:35.725Z,100196.27
2018-03-31T17:21:03.576Z,100197.59
2018-03-31T17:23:32.274Z,100205.73
2018-03-31T17:26:00.277Z,100202.36
2018-03-31T17:28:29.001Z,100200.62
2018-03-31T17:30:57.576Z,100207.34
2018-03-31T17:33:25.534Z,100198.91
2018-03-31T17:35:53.593Z,100205.84
2018-03-31T17:38:21.450Z,100208.30
2018-03-31T17:40:49.289Z,100209.52
2018-03-31T17:43:17.110Z,100212.74
2018-03-31T17:45:45.016Z,100211.20
2018-03-31T17:48:12.943Z,100208.33
2018-03-31T17:50:40.770Z,100218.67
2018-03-31T17:53:09.292Z,100211.38
2018-03-31T17:55:37.248Z,100214.45
2018-03-31T17:58:06.082Z,100214.45
2018-03-31T18:00:34.474Z,100212.89
2018-03-31T18:03:02.566Z,100216.91
2018-03-31T18:05:30.475Z,100225.02
2018-03-31T18:07:58.531Z,100224.55
2018-03-31T18:10:26.475Z,100216.06
2018-03-31T18:12:54.453Z,100216.78
2018-03-31T18:15:22.831Z,100222.19
2018-03-31T18:17:50.646Z,100212.91
2018-03-31T18:20:18.487Z,100214.78
2018-03-31T18:22:46.716Z,100218.88
2018-03-31T18:25:14.522Z,100211.66
2018-03-31T18:27:42.399Z,100204.13
2018-03-31T18:30:10.233Z,100216.36
2018-03-31T18:32:38.049Z,100213.16
2018-03-31T18:35:06.044Z,100212.14
2018-03-31T18:37:34.009Z,100212.97
2018-03-31T18:40:02.027Z,100222.38
2018-03-31T18:42:29.880Z,100212.79
2018-03-31T18:44:58.398Z,100219.09
2018-03-31T18:47:27.324Z,100222.39
2018-03-31T18:49:55.223Z,100230.55
2018-03-31T18:52:23.378Z,100225.09
2018-03-31T18:54:51.330Z,100226.90
2018-03-31T18:57:19.158Z,100227.92
2018-03-31T18:59:46.998Z,100226.90
2018-03-31T19:02:14.821Z,100227.41
2018-03-31T19:04:42.908Z,100224.75
2018-03-31T19:07:10.923Z,100224.27
2018-03-31T19:09:38.842Z,100218.72
2018-03-31T19:12:06.829Z,100221.93
2018-03-31T19:14:34.711Z,100225.20
2018-03-31T19:17:08.169Z,100222.92
2018-03-31T19:19:37.171Z,100223.50
2018-03-31T19:22:05.207Z,100216.22
2018-03-31T19:24:38.737Z,100212.48
2018-03-31T19:27:06.943Z,100210.69
2018-03-31T19:29:35.248Z,100214.55
2018-03-31T19:32:03.333Z,100212.95
2018-03-31T19:34:31.228Z,100220.41
2018-03-31T19:36:59.077Z,100208.50
2018-03-31T19:39:33.525Z,100205.41
2018-03-31T19:42:01.583Z,100202.84
2018-03-31T19:44:29.464Z,100199.99
2018-03-31T19:46:57.960Z,100208.43
2018-03-31T19:49:26.045Z,100212.84
2018-03-31T19:51:54.388Z,100202.01
2018-03-31T19:54:22.333Z,100200.19
2018-03-31T19:56:50.186Z,100204.73
2018-03-31T19:59:18.043Z,100205.91
2018-03-31T20:01:46.743Z,100199.24
2018-03-31T20:04:14.626Z,100207.39
2018-03-31T20:06:42.486Z,100200.11
2018-03-31T20:09:10.530Z,100195.44
2018-03-31T20:11:38.461Z,100200.83
2018-03-31T20:14:06.369Z,100194.97
2018-03-31T20:16:34.722Z,100203.53
2018-03-31T20:19:03.400Z,100202.03
2018-03-31T20:21:31.302Z,100198.91
2018-03-31T20:23:59.539Z,100195.63
2018-03-31T20:26:27.820Z,100193.84
2018-03-31T20:28:55.750Z,100196.44
2018-03-31T20:31:24.364Z,100195.30
2018-03-31T20:33:52.399Z,100194.13
2018-03-31T20:36:20.303Z,100194.87
2018-03-31T20:41:22.942Z,100192.53
2018-03-31T20:43:50.889Z,100190.62
2018-03-31T20:46:19.504Z,100189.06
2018-03-31T20:48:47.472Z,100193.84
2018-03-31T20:51:15.499Z,100179.75
2018-03-31T20:53:43.351Z,100183.27
2018-03-31T20:56:11.193Z,100180.09
2018-03-31T20:58:39.053Z,100182.39
2018-03-31T21:01:06.869Z,100166.98
2018-03-31T21:03:34.791Z,100170.46
2018-03-31T21:06:03.202Z,100164.28
2018-03-31T21:08:31.270Z,100164.61
2018-03-31T21:10:59.212Z,100166.84
2018-03-31T21:13:28.338Z,100165.29
2018-03-31T21:15:56.233Z,100167.09
2018-03-31T21:18:24.262Z,100163.33
2018-03-31T21:20:53.289Z,100161.88
2018-03-31T21:23:21.230Z,100157.14
2018-03-31T21:25:49.153Z,100160.44
2018-03-31T21:28:17.012Z,100157.73
2018-03-31T21:30:44.832Z,100158.22
2018-03-31T21:33:12.718Z,100162.77
2018-03-31T21:35:40.698Z,100156.56
2018-03-31T21:38:08.589Z,100160.47
2018-03-31T21:40:36.536Z,100166.03
2018-03-31T21:43:04.486Z,100163.34
2018-03-31T21:45:32.512Z,100163.05
2018-03-31T21:48:00.471Z,100167.31
2018-03-31T21:50:28.559Z,100171.26
2018-03-31T21:52:56.714Z,100178.48
2018-03-31T21:55:24.967Z,100183.88
2018-03-31T21:57:53.585Z,100177.80
2018-03-31T22:00:21.481Z,100185.81
2018-03-31T22:02:49.324Z,100175.76
2018-03-31T22:05:18.170Z,100180.09
2018-03-31T22:07:46.185Z,100180.98
2018-03-31T22:10:14.239Z,100168.04
2018-03-31T22:12:43.252Z,100165.41
2018-03-31T22:15:16.851Z,100169.81
2018-03-31T22:17:44.758Z,100157.95
2018-03-31T22:20:13.581Z,100158.64
2018-03-31T22:22:42.277Z,100166.43
2018-03-31T22:25:10.658Z,100162.48
2018-03-31T22:27:39.642Z,100161.01
2018-03-31T22:30:07.602Z,100167.25
2018-03-31T22:32:35.726Z,100170.63
2018-03-31T22:35:03.788Z,100176.74
2018-03-31T22:37:32.013Z,100170.63
2018-03-31T22:39:59.955Z,100167.81
2018-03-31T22:42:29.020Z,100164.42
2018-03-31T22:44:56.896Z,100163.97
2018-03-31T22:47:25.255Z,100152.63
2018-03-31T22:49:53.341Z,100153.95
2018-03-31T22:52:21.350Z,100152.73
2018-03-31T22:54:49.304Z,100152.08
2018-03-31T22:57:17.146Z,100156.41
2018-03-31T22:59:44.974Z,100150.30
2018-03-31T23:02:12.877Z,100155.09
2018-03-31T23:04:40.813Z,100157.36
2018-03-31T23:07:09.171Z,100158.15
2018-03-31T23:09:37.479Z,100162.68
2018-03-31T23:12:05.593Z,100170.47
2018-03-31T23:14:33.595Z,100173.66
2018-03-31T23:17:01.554Z,100165.28
2018-03-31T23:19:29.633Z,100166.52
2018-03-31T23:21:58.636Z,100159.95
2018-03-31T23:24:26.591Z,100175.69
2018-03-31T23:26:55.471Z,100165.50
2018-03-31T23:29:24.362Z,100177.23
2018-03-31T23:31:53.159Z,100168.73
2018-03-31T23:34:21.078Z,100168.63
2018-03-31T23:36:51.069Z,100170.44
2018-03-31T23:39:18.968Z,100166.63
2018-03-31T23:41:47.040Z,100168.77
2018-03-31T23:44:14.907Z,100171.03
2018-03-31T23:46:43.316Z,100170.20
2018-03-31T23:49:11.129Z,100170.44
2018-03-31T23:51:38.988Z,100175.66
2018-03-31T23:54:06.932Z,100170.80
2018-03-31T23:56:35.075Z,100168.30
2018-03-31T23:59:03.126Z,100166.52
